DLH005 LOWI-EDDF
Flight info
| Callsign | DLH005 |
|---|---|
| Flight time | N/A |
| Altitude | 32000 |
| Route | KOGOL3J KOGOL M726 ERNAS T161 DEBHI DEBHI1B |
| Aircraft | A320/M-SDE3FGHIRWY/LB1 |
Departure
| Time | N/A |
|---|---|
| Airport | Innsbruck Airport (LOWI) |
Arrival
| Time | 2026-05-04 14:58 |
|---|---|
| Airport | Frankfurt Main Airport (EDDF) |
| Time | Latitude | Longitude | Altitude | Speed | Heading |
|---|---|---|---|---|---|
| 2026-05-04 14:31 | 48.36603 | 11.29492 | 29704 ft | 468 kts | 352° |
| 2026-05-04 14:31 | 48.43107 | 11.28545 | 30304 ft | 470 kts | 351° |
| 2026-05-04 14:32 | 48.49596 | 11.27536 | 31055 ft | 467 kts | 351° |
| 2026-05-04 14:32 | 48.52817 | 11.27016 | 31427 ft | 465 kts | 351° |
| 2026-05-04 14:32 | 48.56037 | 11.26494 | 31791 ft | 464 kts | 351° |
| 2026-05-04 14:32 | 48.59203 | 11.25986 | 31930 ft | 463 kts | 351° |
| 2026-05-04 14:33 | 48.62390 | 11.25478 | 31955 ft | 459 kts | 351° |
| 2026-05-04 14:33 | 48.68722 | 11.24466 | 31947 ft | 457 kts | 351° |
| 2026-05-04 14:34 | 48.75049 | 11.23451 | 31950 ft | 457 kts | 351° |
| 2026-05-04 14:34 | 48.81300 | 11.22009 | 31950 ft | 452 kts | 340° |
| 2026-05-04 14:35 | 48.86892 | 11.18092 | 31956 ft | 443 kts | 322° |
| 2026-05-04 14:35 | 48.91545 | 11.12070 | 31957 ft | 439 kts | 314° |
| 2026-05-04 14:36 | 48.96042 | 11.05794 | 31965 ft | 438 kts | 314° |
| 2026-05-04 14:36 | 49.00538 | 10.99528 | 31977 ft | 438 kts | 314° |
| 2026-05-04 14:37 | 49.05024 | 10.93233 | 31988 ft | 438 kts | 314° |
| 2026-05-04 14:37 | 49.09306 | 10.86754 | 31995 ft | 434 kts | 305° |
| 2026-05-04 14:38 | 49.13062 | 10.79552 | 32000 ft | 434 kts | 305° |
| 2026-05-04 14:38 | 49.16817 | 10.72329 | 32006 ft | 434 kts | 305° |
| 2026-05-04 14:39 | 49.20550 | 10.65106 | 31367 ft | 432 kts | 304° |
| 2026-05-04 14:39 | 49.22415 | 10.61487 | 30519 ft | 435 kts | 304° |
| 2026-05-04 14:39 | 49.24289 | 10.57848 | 29737 ft | 435 kts | 304° |
| 2026-05-04 14:40 | 49.27976 | 10.50682 | 28412 ft | 428 kts | 304° |
| 2026-05-04 14:40 | 49.29807 | 10.47121 | 27778 ft | 424 kts | 304° |
| 2026-05-04 14:40 | 49.31626 | 10.43575 | 27165 ft | 421 kts | 304° |
| 2026-05-04 14:40 | 49.33427 | 10.40060 | 26560 ft | 418 kts | 304° |
| 2026-05-04 14:41 | 49.35216 | 10.36564 | 25952 ft | 415 kts | 304° |
| 2026-05-04 14:41 | 49.36988 | 10.33090 | 25360 ft | 413 kts | 304° |
| 2026-05-04 14:41 | 49.40505 | 10.26189 | 24241 ft | 408 kts | 304° |
| 2026-05-04 14:42 | 49.43961 | 10.19402 | 23088 ft | 404 kts | 304° |
| 2026-05-04 14:42 | 49.45683 | 10.16016 | 22493 ft | 401 kts | 304° |
| 2026-05-04 14:42 | 49.47389 | 10.12648 | 21923 ft | 398 kts | 304° |
| 2026-05-04 14:43 | 49.49080 | 10.09306 | 21393 ft | 394 kts | 304° |
| 2026-05-04 14:43 | 49.50758 | 10.05988 | 20853 ft | 391 kts | 304° |
| 2026-05-04 14:43 | 49.52423 | 10.02694 | 20340 ft | 388 kts | 304° |
| 2026-05-04 14:43 | 49.54076 | 9.99419 | 19837 ft | 386 kts | 304° |
| 2026-05-04 14:44 | 49.55711 | 9.96169 | 19354 ft | 383 kts | 304° |
| 2026-05-04 14:44 | 49.57335 | 9.92938 | 18872 ft | 380 kts | 304° |
| 2026-05-04 14:44 | 49.58948 | 9.89725 | 18397 ft | 378 kts | 304° |
| 2026-05-04 14:44 | 49.60551 | 9.86532 | 17888 ft | 375 kts | 304° |
| 2026-05-04 14:45 | 49.62118 | 9.83394 | 17372 ft | 373 kts | 304° |
| 2026-05-04 14:45 | 49.63696 | 9.80221 | 16966 ft | 372 kts | 304° |
| 2026-05-04 14:45 | 49.65276 | 9.77076 | 16566 ft | 370 kts | 305° |
| 2026-05-04 14:45 | 49.66847 | 9.73950 | 16220 ft | 369 kts | 305° |
| 2026-05-04 14:46 | 49.68417 | 9.70816 | 15979 ft | 369 kts | 305° |
| 2026-05-04 14:46 | 49.69983 | 9.67688 | 15732 ft | 368 kts | 305° |
| 2026-05-04 14:46 | 49.71537 | 9.64556 | 15476 ft | 367 kts | 304° |
| 2026-05-04 14:46 | 49.73125 | 9.61343 | 15226 ft | 384 kts | 305° |
| 2026-05-04 14:47 | 49.74759 | 9.58043 | 14799 ft | 387 kts | 305° |
| 2026-05-04 14:47 | 49.76368 | 9.54795 | 14292 ft | 385 kts | 305° |
| 2026-05-04 14:47 | 49.77993 | 9.51510 | 13767 ft | 384 kts | 306° |
| 2026-05-04 14:47 | 49.79616 | 9.48236 | 13198 ft | 382 kts | 306° |
| 2026-05-04 14:48 | 49.81227 | 9.44990 | 12672 ft | 379 kts | 305° |
| 2026-05-04 14:48 | 49.82824 | 9.41755 | 12138 ft | 377 kts | 305° |
| 2026-05-04 14:48 | 49.84404 | 9.38539 | 11598 ft | 374 kts | 305° |
| 2026-05-04 14:48 | 49.85874 | 9.35244 | 11054 ft | 369 kts | 296° |
| 2026-05-04 14:49 | 49.86838 | 9.31617 | 10764 ft | 361 kts | 283° |
| 2026-05-04 14:49 | 49.87538 | 9.27865 | 10680 ft | 362 kts | 283° |
| 2026-05-04 14:49 | 49.88250 | 9.24115 | 10571 ft | 363 kts | 283° |
| 2026-05-04 14:49 | 49.88966 | 9.20373 | 10428 ft | 362 kts | 284° |
| 2026-05-04 14:50 | 49.89677 | 9.16676 | 10285 ft | 362 kts | 284° |
| 2026-05-04 14:50 | 49.90726 | 9.13130 | 10144 ft | 366 kts | 303° |
| 2026-05-04 14:50 | 49.92496 | 9.10323 | 9726 ft | 366 kts | 323° |
| 2026-05-04 14:50 | 49.94782 | 9.08633 | 9140 ft | 366 kts | 342° |
| 2026-05-04 14:51 | 49.97214 | 9.07574 | 8430 ft | 360 kts | 344° |
| 2026-05-04 14:51 | 49.99634 | 9.06565 | 7874 ft | 358 kts | 344° |
| 2026-05-04 14:51 | 50.01970 | 9.05597 | 7730 ft | 335 kts | 344° |
| 2026-05-04 14:51 | 50.04134 | 9.04714 | 7601 ft | 308 kts | 344° |
| 2026-05-04 14:52 | 50.06134 | 9.03909 | 7473 ft | 286 kts | 343° |
| 2026-05-04 14:52 | 50.07864 | 9.02805 | 7343 ft | 261 kts | 322° |
| 2026-05-04 14:52 | 50.09048 | 9.00800 | 6906 ft | 249 kts | 294° |
| 2026-05-04 14:52 | 50.09668 | 8.98316 | 6389 ft | 245 kts | 285° |
| 2026-05-04 14:53 | 50.10166 | 8.95793 | 5991 ft | 243 kts | 284° |
| 2026-05-04 14:53 | 50.10635 | 8.93282 | 5687 ft | 240 kts | 284° |
| 2026-05-04 14:53 | 50.11088 | 8.90814 | 5329 ft | 235 kts | 284° |
| 2026-05-04 14:53 | 50.11513 | 8.88362 | 4814 ft | 233 kts | 280° |
| 2026-05-04 14:54 | 50.11348 | 8.85939 | 4320 ft | 228 kts | 242° |
| 2026-05-04 14:54 | 50.10278 | 8.84153 | 3904 ft | 229 kts | 222° |
| 2026-05-04 14:54 | 50.09316 | 8.82272 | 3520 ft | 226 kts | 253° |
| 2026-05-04 14:54 | 50.08992 | 8.79875 | 3219 ft | 228 kts | 256° |
| 2026-05-04 14:55 | 50.08502 | 8.77535 | 2898 ft | 225 kts | 251° |
| 2026-05-04 14:55 | 50.07959 | 8.75297 | 2599 ft | 217 kts | 250° |
| 2026-05-04 14:55 | 50.07443 | 8.73144 | 2329 ft | 208 kts | 251° |
| 2026-05-04 14:55 | 50.06952 | 8.71073 | 2052 ft | 201 kts | 251° |
| 2026-05-04 14:56 | 50.06477 | 8.69068 | 1799 ft | 191 kts | 250° |
| 2026-05-04 14:56 | 50.06039 | 8.67222 | 1561 ft | 175 kts | 251° |
| 2026-05-04 14:56 | 50.05628 | 8.65491 | 1310 ft | 167 kts | 251° |
| 2026-05-04 14:56 | 50.05235 | 8.63831 | 1104 ft | 158 kts | 251° |
| 2026-05-04 14:57 | 50.04985 | 8.62789 | 956 ft | 154 kts | 249° |
| 2026-05-04 14:57 | 50.04618 | 8.61257 | 774 ft | 147 kts | 251° |
| 2026-05-04 14:57 | 50.04159 | 8.59294 | 499 ft | 144 kts | 250° |
| 2026-05-04 14:57 | 50.03813 | 8.57848 | 371 ft | 137 kts | 250° |
| 2026-05-04 14:58 | 50.03524 | 8.56636 | 352 ft | 95 kts | 250° |
| 2026-05-04 14:58 | 50.03354 | 8.55916 | 350 ft | 43 kts | 251° |
| 2026-05-04 14:58 | 50.03308 | 8.55647 | 344 ft | 24 kts | 265° |
| 2026-05-04 14:58 | 50.03313 | 8.55479 | 346 ft | 23 kts | 279° |
| 2026-05-04 14:59 | 50.03342 | 8.55242 | 342 ft | 16 kts | 281° |
| 2026-05-04 14:59 | 50.03422 | 8.55192 | 347 ft | 15 kts | 48° |
| 2026-05-04 14:59 | 50.03485 | 8.55444 | 350 ft | 11 kts | 70° |
| 2026-05-04 15:00 | 50.03531 | 8.55631 | 348 ft | 19 kts | 70° |
| 2026-05-04 15:00 | 50.03564 | 8.55773 | 355 ft | 23 kts | 70° |
| 2026-05-04 15:00 | 50.03623 | 8.56018 | 357 ft | 24 kts | 70° |
| 2026-05-04 15:01 | 50.03733 | 8.56485 | 355 ft | 22 kts | 70° |
| 2026-05-04 15:01 | 50.03785 | 8.56698 | 358 ft | 20 kts | 69° |
| 2026-05-04 15:01 | 50.03830 | 8.56889 | 361 ft | 18 kts | 70° |
| 2026-05-04 15:01 | 50.03869 | 8.57056 | 362 ft | 15 kts | 69° |
| 2026-05-04 15:02 | 50.03900 | 8.57182 | 363 ft | 11 kts | 69° |
| 2026-05-04 15:02 | 50.03925 | 8.57284 | 365 ft | 11 kts | 69° |
| 2026-05-04 15:02 | 50.03957 | 8.57414 | 369 ft | 14 kts | 69° |
| 2026-05-04 15:02 | 50.03997 | 8.57584 | 369 ft | 19 kts | 70° |
| 2026-05-04 15:03 | 50.04049 | 8.57803 | 368 ft | 24 kts | 70° |
| 2026-05-04 15:03 | 50.04106 | 8.58038 | 370 ft | 23 kts | 69° |
| 2026-05-04 15:03 | 50.04160 | 8.58267 | 370 ft | 22 kts | 69° |
| 2026-05-04 15:03 | 50.04212 | 8.58481 | 371 ft | 20 kts | 70° |
| 2026-05-04 15:04 | 50.04259 | 8.58675 | 371 ft | 18 kts | 69° |
| 2026-05-04 15:04 | 50.04298 | 8.58838 | 373 ft | 14 kts | 70° |
| 2026-05-04 15:04 | 50.04330 | 8.58972 | 376 ft | 14 kts | 70° |
| 2026-05-04 15:04 | 50.04370 | 8.59139 | 377 ft | 19 kts | 70° |
| 2026-05-04 15:05 | 50.04416 | 8.59331 | 375 ft | 15 kts | 70° |
| 2026-05-04 15:05 | 50.04447 | 8.59448 | 375 ft | 11 kts | 51° |
| 2026-05-04 15:05 | 50.04518 | 8.59471 | 374 ft | 11 kts | 356° |
| 2026-05-04 15:05 | 50.04564 | 8.59467 | 373 ft | 4 kts | 358° |
| 2026-05-04 15:06 | 50.04599 | 8.59465 | 373 ft | 9 kts | 357° |
| 2026-05-04 15:06 | 50.04695 | 8.59441 | 372 ft | 15 kts | 345° |
| 2026-05-04 15:06 | 50.04796 | 8.59386 | 372 ft | 16 kts | 337° |
| 2026-05-04 15:07 | 50.04804 | 8.59086 | 368 ft | 11 kts | 248° |
| 2026-05-04 15:07 | 50.04820 | 8.59005 | 370 ft | 10 kts | 328° |
| 2026-05-04 15:07 | 50.04872 | 8.58974 | 366 ft | 3 kts | 340° |
| 2026-05-04 15:07 | 50.04873 | 8.58974 | 366 ft | 0 kts | 340° |